Hyalite Weather Station

This weather station provides temperature, wind speed, gust or max wind speed, and wind direction at 9982ft near the summit of Flanders Mountain. This data can be used with temperature and precipitation data from the Shower Falls SNOTEL site. If the data has not been updated recently you can view it directly on datagarrison.com

Elevation
9982ft
Jump to table bottom
Date Time Temperature
deg F
RH, % Wind Speed Wind Gust Wind Direction
11/30/22 14:00 14.1 81 38 55 SW - 247
11/30/22 13:00 15.6 78 40 55 SW - 247
11/30/22 12:00 14.9 80 39 53 SW - 246
11/30/22 11:00 14.1 79 37 48 SW - 241
11/30/22 10:00 13.6 78 35 48 SW - 247
11/30/22 09:00 12.3 80 36 48 SW - 246
11/30/22 08:00 10.8 80 31 48 SW - 239
11/30/22 07:00 11.0 79 27 39 SW - 239
11/30/22 06:00 7.3 81 27 37 SW - 246
11/30/22 05:00 5.4 81 31 43 SW - 246
11/30/22 04:00 3.9 75 24 38 SW - 240
11/30/22 03:00 1.6 77 24 41 SW - 234
11/30/22 02:00 -0.4 78 27 40 SW - 233
11/30/22 01:00 -1.6 81 24 40 SW - 223
11/30/22 00:00 -2.1 80 26 40 SW - 232
11/29/22 23:00 -2.6 82 15 27 SW - 243
11/29/22 22:00 -3.2 82 19 29 SW - 244
11/29/22 21:00 -3.7 82 17 24 SW - 247
11/29/22 20:00 -3.7 82 14 20 W - 256
11/29/22 19:00 -4.1 82 15 25 W - 254
11/29/22 18:00 -4.2 82 14 22 W - 254
11/29/22 17:00 -4.4 82 10 16 W - 263
11/29/22 16:00 -3.9 82 10 21 W - 261
11/29/22 15:00 -3.5 82 11 26 W - 250
11/29/22 14:00 -3.2 82 14 28 W - 254
11/29/22 13:00 -3.8 82 14 24 W - 251
11/29/22 12:00 -3.6 82 11 20 W - 250
11/29/22 11:00 -3.7 80 10 21 W - 248
11/29/22 10:00 -4.6 80 12 19 W - 261
11/29/22 09:00 -4.4 81 14 22 W - 260
11/29/22 08:00 -6.1 82 14 21 W - 263
11/29/22 07:00 -5.4 82 13 20 W - 261
11/29/22 06:00 -4.3 82 14 20 W - 263
11/29/22 05:00 -4.2 82 12 19 W - 254
11/29/22 04:00 -2.4 79 10 15 W - 253
11/29/22 03:00 -2.2 75 7 13 W - 251
11/29/22 02:00 -2.2 79 10 14 W - 248
11/29/22 01:00 -2.4 81 10 13 SW - 244
11/29/22 00:00 -2.4 81 8 13 SW - 234
11/28/22 23:00 -2.2 82 8 12 SW - 230
11/28/22 22:00 -2.4 82 8 10 SW - 226
11/28/22 21:00 -2.9 82 6 9 SW - 229
11/28/22 20:00 -2.2 82 5 8 SW - 232
11/28/22 19:00 -1.9 82 4 6 SW - 233
11/28/22 18:00 -1.7 82 4 5 SW - 232
11/28/22 17:00 -1.9 82 4 7 SW - 247
11/28/22 16:00 0.9 82 3 6 SW - 243
11/28/22 15:00 2.4 82 4 9 SW - 243
11/28/22 14:00 0.3 82 7 11 SW - 247
11/28/22 13:00 -0.8 82 8 13 SW - 246